Accueil
METAR-TAF:

METAR-TAF

Aéroports :

Aéroport de Vérone

Vérone, Italie

latitude: 45-23N, longitude: 010-52E, altitude: 67 m

Observation

Le bulletin a été fait il y a 34 minutes, à 09:20 UTC
Vent 7 kt de est, variant entre nord/nord-est et sud-est
Température 21°C
Humidité 49%
Pression 1017 hPa
Visibilité 10 km ou plus
Quelques nuages à une hauteur de 5000 ft
Nuages épars à une hauteur de 9000 ft

METAR: LIPX 300920Z 09007KT 020V130 9999 FEW050 SCT090 21/10 Q1017

Heure: 11:54 (09:54 UTC)

Prévision

Le bulletin a été fait il y a 1 heure et 54 minutes, à 08:00 UTC
Prévision valable du 30 à 09 UTC au 30 à 18 UTC
Vent 8 kt de est
Visibilité 10 km ou plus
Nuages épars à une hauteur de 5000 ft

TAF: LIPX 300800Z 3009/3018 08008KT 9999 SCT050

Observations et prévisions météorologiques de plus de 4000 aéroports (messages METAR et TAF).

Les stations disponibles sont représentées par des disques jaunes et rouges sur la carte.

Passer la souris dessus pour voir le nom de la station.

Cliquer dessus pour voir les observations et prévisions météorologiques.

Pour changer de carte: cliquez sur les boutons verts avec une croix noire pour zoomer, sur le bouton vert avec un tiret pour effectuer un zoom arrière, ou sur les flèches vertes pour les cartes adjacentes.


METAR-TAF: